Terminal Aerodrome Forecast
Issued by NWS

Home | Current Version | Previous Version | Text Only | Print | Product List | Glossary On
Versions: 1 2 3 4 5 6 7 8 9 10 11 12 13 14 15 16 17 18 19 20 21 22 23 24 25 26 27 28
000
FTUS41 KBOX 010614 AAA
TAFFMH
TAF AMD
KFMH 010614Z 0106/0206 02008G16KT 1/2SM FG OVC003
     FM010800 04009KT 2SM BR OVC003
     FM011700 04011KT 2SM -SHRA BR OVC008=

USA.gov is the U.S. government's official web portal to all federal, state and local government web resources and services.